Aviation Digital Data Service (ADDS)

Output produced by METARs form (1056 UTC 20 September 2017)
found at http://www.aviationweather.gov/adds/metars/
 
KPAE 201053Z AUTO 07003KT 10SM OVC041 08/07 A2964 RMK AO2 SLP037 T00780067
KPAE 200539Z 2006/2106 VRB04KT P6SM SCT025 BKN040 BKN060 
     TEMPO 2006/2009 -SHRA BKN025 OVC040 
     FM201200 VRB04KT P6SM BKN011 OVC018 
     FM201600 VRB04KT P6SM BKN018 BKN050 
     FM201800 36006KT P6SM BKN050 
     FM210400 18008KT P6SM BKN050
       
KAWO 200956Z AUTO 22003KT 3SM BR FEW003 07/07 A2966 RMK AO2 SLP048 T00670067
KBFI 201053Z 00000KT 10SM BKN025 BKN031 BKN065 11/11 A2963 RMK AO2 RAE22 SLP032 P0002 T01110111 $
KBFI 200539Z 2006/2106 17004KT P6SM SCT025 BKN050 
     FM201200 VRB03KT P6SM VCSH BKN018 OVC030 
     FM201800 33006KT P6SM SCT030 BKN050 
     FM210400 18006KT P6SM BKN050
       
KRNT 201053Z AUTO 00000KT 10SM BKN042 OVC050 11/10 A2963 RMK AO2 RAB30E45 SLP037 P0000 T01060100
KSEA 201053Z 00000KT 10SM SCT026 BKN049 OVC065 11/08 A2963 RMK AO2 RAB13E27 SLP040 P0000 T01110083 $
KSEA 200904Z 2009/2112 19004KT P6SM SCT025 BKN045 
     TEMPO 2009/2012 BKN025 BKN045 
     FM201200 VRB03KT P6SM VCSH BKN015 OVC025 
     FM201800 36006KT P6SM SCT025 BKN050 
     FM210400 19006KT P6SM BKN050